createdAt,value
2023-03-04T00:01:22.669Z,95.11
2023-03-04T00:03:49.552Z,95.00
2023-03-04T00:06:16.550Z,95.30
2023-03-04T00:08:43.564Z,95.24
2023-03-04T00:11:10.582Z,95.07
2023-03-04T00:13:37.482Z,95.19
2023-03-04T00:16:04.474Z,95.17
2023-03-04T00:18:31.407Z,95.43
2023-03-04T00:20:58.323Z,95.49
2023-03-04T00:23:25.235Z,95.63
2023-03-04T00:25:52.155Z,95.68
2023-03-04T00:28:19.396Z,95.34
2023-03-04T00:30:46.235Z,94.79
2023-03-04T00:33:13.234Z,94.84
2023-03-04T00:35:40.418Z,95.02
2023-03-04T00:38:07.314Z,94.74
2023-03-04T00:40:34.243Z,95.14
2023-03-04T00:43:02.716Z,95.25
2023-03-04T00:45:29.755Z,95.46
2023-03-04T00:47:56.690Z,95.93
2023-03-04T00:50:23.618Z,96.53
2023-03-04T00:52:50.683Z,96.60
2023-03-04T00:55:17.682Z,96.75
2023-03-04T00:57:44.779Z,97.03
2023-03-04T01:00:14.410Z,97.34
2023-03-04T01:02:41.389Z,97.53
2023-03-04T01:05:09.099Z,97.96
2023-03-04T01:07:36.006Z,97.82
2023-03-04T01:10:03.176Z,97.92
2023-03-04T01:12:30.180Z,97.82
2023-03-04T01:14:59.285Z,98.14
2023-03-04T01:17:26.172Z,98.36
2023-03-04T01:19:53.103Z,98.47
2023-03-04T01:22:20.347Z,98.42
2023-03-04T01:24:48.154Z,98.93
2023-03-04T01:27:15.228Z,99.25
2023-03-04T01:29:42.105Z,99.49
2023-03-04T01:32:09.126Z,98.93
2023-03-04T01:34:36.558Z,99.60
2023-03-04T01:37:04.516Z,99.98
2023-03-04T01:39:31.425Z,99.95
2023-03-04T01:41:58.457Z,99.78
2023-03-04T01:44:25.429Z,100.00
2023-03-04T01:46:53.572Z,99.88
2023-03-04T01:49:20.871Z,99.79
2023-03-04T01:51:49.643Z,100.00
2023-03-04T01:54:17.106Z,100.00
2023-03-04T01:56:45.030Z,100.00
2023-03-04T01:59:14.221Z,100.00
2023-03-04T02:01:43.255Z,100.00
2023-03-04T02:04:10.366Z,100.00
2023-03-04T02:06:38.576Z,100.00
2023-03-04T02:09:06.486Z,100.00
2023-03-04T02:11:33.850Z,100.00
2023-03-04T02:14:00.820Z,100.00
2023-03-04T02:16:28.095Z,100.00
2023-03-04T02:18:55.516Z,100.00
2023-03-04T02:21:33.489Z,100.00
2023-03-04T02:24:03.406Z,100.00
2023-03-04T02:26:31.423Z,100.00
2023-03-04T02:29:00.429Z,100.00
2023-03-04T02:31:33.435Z,100.00
2023-03-04T02:34:05.997Z,100.00
2023-03-04T02:36:34.367Z,100.00
2023-03-04T02:39:03.406Z,100.00
2023-03-04T02:41:31.411Z,100.00
2023-03-04T02:43:59.302Z,100.00
2023-03-04T02:46:27.669Z,100.00
2023-03-04T02:48:54.854Z,100.00
2023-03-04T02:51:21.737Z,100.00
2023-03-04T02:53:48.660Z,100.00
2023-03-04T02:56:15.834Z,100.00
2023-03-04T02:59:02.644Z,100.00
2023-03-04T03:01:29.951Z,100.00
2023-03-04T03:03:57.437Z,100.00
2023-03-04T03:06:24.374Z,100.00
2023-03-04T03:08:51.261Z,100.00
2023-03-04T03:11:19.219Z,100.00
2023-03-04T03:13:46.133Z,100.00
2023-03-04T03:16:14.069Z,100.00
2023-03-04T03:18:41.677Z,100.00
2023-03-04T03:21:09.348Z,100.00
2023-03-04T03:23:36.709Z,100.00
2023-03-04T03:26:03.854Z,100.00
2023-03-04T03:28:31.734Z,100.00
2023-03-04T03:31:00.312Z,100.00
2023-03-04T03:33:27.248Z,100.00
2023-03-04T03:35:54.367Z,100.00
2023-03-04T03:38:21.396Z,100.00
2023-03-04T03:40:48.323Z,100.00
2023-03-04T03:43:15.208Z,100.00
2023-03-04T03:45:42.221Z,100.00
2023-03-04T03:48:09.320Z,100.00
2023-03-04T03:50:36.230Z,100.00
2023-03-04T03:53:03.902Z,100.00
2023-03-04T03:55:30.850Z,100.00
2023-03-04T03:57:57.848Z,100.00
2023-03-04T04:00:24.922Z,100.00
2023-03-04T04:02:53.019Z,100.00
2023-03-04T04:05:19.965Z,100.00
2023-03-04T04:07:46.952Z,100.00
2023-03-04T04:10:13.801Z,100.00
2023-03-04T04:12:40.760Z,100.00
2023-03-04T04:15:08.127Z,100.00
2023-03-04T04:17:35.116Z,100.00
2023-03-04T04:20:02.044Z,100.00
2023-03-04T04:22:29.547Z,100.00
2023-03-04T04:24:56.515Z,100.00
2023-03-04T04:27:23.413Z,100.00
2023-03-04T04:29:50.420Z,100.00
2023-03-04T04:32:17.388Z,100.00
2023-03-04T04:34:44.276Z,100.00
2023-03-04T04:37:11.355Z,100.00
2023-03-04T04:39:38.479Z,100.00
2023-03-04T04:42:05.458Z,100.00
2023-03-04T04:44:32.488Z,100.00
2023-03-04T04:46:59.421Z,100.00
2023-03-04T04:49:26.417Z,100.00
2023-03-04T04:51:53.314Z,100.00
2023-03-04T04:54:20.240Z,100.00
2023-03-04T04:56:48.221Z,100.00
2023-03-04T04:59:15.097Z,100.00
2023-03-04T05:01:42.121Z,100.00
2023-03-04T05:04:09.210Z,100.00
2023-03-04T05:06:36.058Z,100.00
2023-03-04T05:09:03.375Z,100.00
2023-03-04T05:11:30.324Z,100.00
2023-03-04T05:13:57.297Z,100.00
2023-03-04T05:16:24.273Z,100.00
2023-03-04T05:18:51.347Z,99.42
2023-03-04T05:21:18.264Z,97.80
2023-03-04T05:23:45.173Z,98.37
2023-03-04T05:26:13.865Z,98.09
2023-03-04T05:28:40.781Z,97.45
2023-03-04T05:31:07.720Z,97.03
2023-03-04T05:33:35.142Z,96.24
2023-03-04T05:36:02.640Z,96.15
2023-03-04T05:38:29.701Z,95.14
2023-03-04T05:40:58.471Z,95.47
2023-03-04T05:43:26.479Z,95.25
2023-03-04T05:45:53.557Z,95.07
2023-03-04T05:48:20.884Z,95.50
2023-03-04T05:50:48.034Z,94.97
2023-03-04T05:53:15.070Z,95.15
2023-03-04T05:55:47.351Z,94.48
2023-03-04T05:58:14.599Z,94.66
2023-03-04T06:00:41.740Z,93.57
2023-03-04T06:03:14.273Z,93.84
2023-03-04T06:05:41.334Z,93.66
2023-03-04T06:08:08.263Z,93.39
2023-03-04T06:10:35.192Z,92.23
2023-03-04T06:13:02.139Z,92.74
2023-03-04T06:15:29.220Z,92.03
2023-03-04T06:23:32.684Z,90.91
2023-03-04T06:26:01.734Z,90.48
2023-03-04T06:28:31.508Z,90.40
2023-03-04T06:30:58.877Z,89.74
2023-03-04T06:33:26.586Z,89.45
2023-03-04T06:35:54.186Z,88.90
2023-03-04T06:38:21.245Z,88.93
2023-03-04T06:40:48.204Z,89.40
2023-03-04T06:43:15.272Z,89.13
2023-03-04T06:45:42.724Z,88.11
2023-03-04T06:48:09.710Z,87.19
2023-03-04T06:50:36.706Z,87.50
2023-03-04T06:53:03.603Z,87.93
2023-03-04T06:55:30.588Z,87.66
2023-03-04T06:57:57.761Z,87.73
2023-03-04T07:00:24.813Z,87.58
2023-03-04T07:02:54.004Z,87.75
2023-03-04T07:05:22.014Z,87.86
2023-03-04T07:07:49.788Z,87.18
2023-03-04T07:10:20.219Z,87.45
2023-03-04T07:12:47.099Z,87.26
2023-03-04T07:15:14.493Z,86.52
2023-03-04T07:17:41.504Z,86.70
2023-03-04T07:20:08.942Z,86.08
2023-03-04T07:22:35.973Z,85.90
2023-03-04T07:25:02.944Z,85.41
2023-03-04T07:27:30.020Z,85.86
2023-03-04T07:29:57.014Z,85.40
2023-03-04T07:32:24.035Z,85.71
2023-03-04T07:34:51.465Z,86.03
2023-03-04T07:37:18.495Z,86.36
2023-03-04T07:39:45.573Z,87.63
2023-03-04T07:42:12.633Z,88.12
2023-03-04T07:44:41.870Z,87.97
2023-03-04T07:47:08.809Z,87.72
2023-03-04T07:49:35.725Z,86.92
2023-03-04T07:52:06.013Z,85.45
2023-03-04T07:54:33.451Z,85.62
2023-03-04T07:57:01.026Z,84.96
2023-03-04T07:59:28.144Z,86.42
2023-03-04T08:01:55.129Z,87.18
2023-03-04T08:04:22.242Z,88.11
2023-03-04T08:06:49.293Z,88.22
2023-03-04T08:09:16.228Z,89.20
2023-03-04T08:11:43.645Z,88.84
2023-03-04T08:14:14.077Z,88.79
2023-03-04T08:16:41.659Z,89.02
2023-03-04T08:19:09.156Z,89.09
2023-03-04T08:21:36.057Z,89.34
2023-03-04T08:24:08.917Z,88.38
2023-03-04T08:26:42.255Z,88.54
2023-03-04T08:29:10.311Z,88.06
2023-03-04T08:31:38.574Z,87.93
2023-03-04T08:34:06.105Z,88.05
2023-03-04T08:36:33.000Z,87.85
2023-03-04T08:39:00.106Z,87.55
2023-03-04T08:41:27.699Z,87.64
2023-03-04T08:43:55.461Z,86.53
2023-03-04T08:46:22.400Z,86.64
2023-03-04T08:48:49.415Z,86.77
2023-03-04T08:51:17.281Z,86.31
2023-03-04T08:53:44.550Z,85.73
2023-03-04T08:56:12.103Z,85.23
2023-03-04T08:58:39.118Z,84.98
2023-03-04T09:01:08.506Z,85.16
2023-03-04T09:03:40.529Z,85.13
2023-03-04T09:06:07.951Z,84.60
2023-03-04T09:08:35.253Z,85.29
2023-03-04T09:11:02.286Z,84.97
2023-03-04T09:13:30.322Z,84.94
2023-03-04T09:15:57.689Z,84.32
2023-03-04T09:18:25.111Z,83.19
2023-03-04T09:20:52.597Z,82.63
2023-03-04T09:23:19.685Z,81.23
2023-03-04T09:25:47.658Z,80.30
2023-03-04T09:28:14.857Z,79.55
2023-03-04T09:30:41.913Z,79.50
2023-03-04T09:33:08.988Z,77.51
2023-03-04T09:35:35.963Z,77.83
2023-03-04T09:38:03.480Z,77.84
2023-03-04T09:40:32.697Z,77.52
2023-03-04T09:43:00.930Z,77.04
2023-03-04T09:45:32.086Z,77.09
2023-03-04T09:47:59.275Z,78.11
2023-03-04T09:50:27.065Z,78.75
2023-03-04T09:52:54.156Z,80.40
2023-03-04T09:55:35.155Z,81.34
2023-03-04T09:58:04.967Z,81.16
2023-03-04T10:00:43.098Z,82.44
2023-03-04T10:03:16.103Z,80.47
2023-03-04T10:05:48.854Z,79.90
2023-03-04T10:08:34.787Z,79.45
2023-03-04T10:11:02.532Z,79.14
2023-03-04T10:13:34.701Z,78.23
2023-03-04T10:16:02.423Z,77.80
2023-03-04T10:18:32.453Z,77.71
2023-03-04T10:20:59.520Z,78.26
2023-03-04T10:23:28.258Z,77.91
2023-03-04T10:25:55.979Z,77.82
2023-03-04T10:28:27.344Z,77.70
2023-03-04T10:31:17.833Z,77.36
2023-03-04T10:33:44.772Z,77.07
2023-03-04T10:36:26.499Z,77.03
2023-03-04T10:38:54.999Z,77.88
2023-03-04T10:41:22.966Z,78.88
2023-03-04T10:44:01.584Z,78.78
2023-03-04T10:46:28.688Z,79.67
2023-03-04T10:48:55.724Z,80.85
2023-03-04T10:51:23.939Z,82.05
2023-03-04T10:53:52.785Z,84.21
2023-03-04T10:56:32.116Z,84.49
2023-03-04T10:59:17.768Z,84.58
2023-03-04T11:01:44.746Z,84.55
2023-03-04T11:04:18.947Z,84.62
2023-03-04T11:06:45.998Z,84.50
2023-03-04T11:09:26.532Z,83.92
2023-03-04T11:11:54.983Z,84.87
2023-03-04T11:14:30.449Z,84.80
2023-03-04T11:16:57.454Z,84.64
2023-03-04T11:19:28.698Z,84.49
2023-03-04T11:21:56.935Z,85.13
2023-03-04T11:24:29.565Z,84.54
2023-03-04T11:26:56.663Z,85.74
2023-03-04T11:29:23.644Z,86.25
2023-03-04T11:32:08.947Z,86.84
2023-03-04T11:34:43.517Z,87.65
2023-03-04T11:37:15.838Z,88.17
2023-03-04T11:40:06.465Z,89.22
2023-03-04T11:42:33.424Z,90.07
2023-03-04T11:45:00.609Z,91.60
2023-03-04T11:47:27.452Z,92.47
2023-03-04T11:50:00.319Z,92.92
2023-03-04T11:52:32.015Z,94.08
2023-03-04T11:55:01.817Z,95.67
2023-03-04T11:57:38.987Z,96.25
2023-03-04T12:00:24.660Z,96.69
2023-03-04T12:02:54.703Z,97.67
2023-03-04T12:05:32.671Z,99.45
2023-03-04T12:08:08.283Z,99.87
2023-03-04T12:10:40.062Z,100.00
2023-03-04T12:13:25.825Z,100.00
2023-03-04T12:16:12.965Z,100.00
2023-03-04T12:18:48.078Z,100.00
2023-03-04T12:21:33.900Z,100.00
2023-03-04T12:24:20.156Z,100.00
2023-03-04T12:26:50.229Z,100.00
2023-03-04T12:29:37.564Z,100.00
2023-03-04T12:32:04.487Z,100.00
2023-03-04T12:34:43.638Z,100.00
2023-03-04T12:37:10.571Z,100.00
2023-03-04T12:39:40.976Z,100.00
2023-03-04T12:42:07.819Z,100.00
2023-03-04T12:44:47.305Z,100.00
2023-03-04T12:47:34.501Z,100.00
2023-03-04T12:50:04.474Z,100.00
2023-03-04T12:52:31.307Z,100.00
2023-03-04T12:55:04.377Z,100.00
2023-03-04T12:57:31.985Z,100.00
2023-03-04T13:00:17.579Z,100.00
2023-03-04T13:03:03.466Z,100.00
2023-03-04T13:05:42.912Z,100.00
2023-03-04T13:08:22.103Z,100.00
2023-03-04T13:10:50.727Z,100.00
2023-03-04T13:13:34.333Z,100.00
2023-03-04T13:16:02.694Z,100.00
2023-03-04T13:18:29.580Z,100.00
2023-03-04T13:21:11.714Z,100.00
2023-03-04T13:23:38.754Z,100.00
2023-03-04T13:26:28.361Z,100.00
2023-03-04T13:29:09.495Z,100.00
2023-03-04T13:31:56.654Z,100.00
2023-03-04T13:34:42.644Z,100.00
2023-03-04T13:37:30.221Z,100.00
2023-03-04T13:40:27.502Z,100.00
2023-03-04T13:42:54.548Z,100.00
2023-03-04T13:45:40.343Z,100.00
2023-03-04T13:48:29.131Z,100.00
2023-03-04T13:50:57.003Z,100.00
2023-03-04T13:53:33.393Z,100.00
2023-03-04T13:56:12.368Z,100.00
2023-03-04T13:58:44.022Z,100.00
2023-03-04T14:01:22.659Z,100.00
2023-03-04T14:03:49.970Z,100.00
2023-03-04T14:06:19.983Z,100.00
2023-03-04T14:08:47.675Z,100.00
2023-03-04T14:11:26.488Z,100.00
2023-03-04T14:41:29.938Z,100.00
2023-03-04T14:44:10.463Z,100.00
2023-03-04T14:52:03.605Z,100.00
2023-03-04T14:54:33.783Z,100.00
2023-03-04T14:59:44.088Z,100.00
2023-03-04T15:05:26.310Z,100.00
2023-03-04T15:13:37.403Z,100.00
2023-03-04T15:16:05.873Z,100.00
2023-03-04T15:18:35.554Z,100.00
2023-03-04T15:23:48.184Z,100.00
2023-03-04T15:31:38.880Z,100.00
2023-03-04T15:34:12.721Z,100.00
2023-03-04T15:36:44.672Z,100.00
2023-03-04T15:47:20.388Z,100.00
2023-03-04T15:52:29.166Z,100.00
2023-03-04T15:54:59.389Z,100.00
2023-03-04T15:57:30.057Z,100.00
2023-03-04T16:02:42.218Z,100.00
2023-03-04T16:05:10.186Z,100.00
2023-03-04T16:10:20.824Z,100.00
2023-03-04T16:12:48.018Z,100.00
2023-03-04T16:15:17.279Z,100.00
2023-03-04T16:17:44.746Z,100.00
2023-03-04T16:20:19.169Z,100.00
2023-03-04T16:22:47.420Z,100.00
2023-03-04T16:25:16.176Z,100.00
2023-03-04T16:27:43.752Z,100.00
2023-03-04T16:30:15.653Z,100.00
2023-03-04T16:32:44.208Z,100.00
2023-03-04T16:35:12.211Z,100.00
2023-03-04T16:37:42.562Z,100.00
2023-03-04T16:40:13.118Z,100.00
2023-03-04T16:42:40.488Z,100.00
2023-03-04T16:45:08.313Z,100.00
2023-03-04T16:47:36.755Z,100.00
2023-03-04T16:50:04.195Z,100.00
2023-03-04T16:52:33.891Z,100.00
2023-03-04T16:55:00.981Z,100.00
2023-03-04T16:57:31.814Z,100.00
2023-03-04T16:59:59.464Z,100.00
2023-03-04T17:02:27.780Z,100.00
2023-03-04T17:04:57.010Z,100.00
2023-03-04T17:07:24.814Z,100.00
2023-03-04T17:09:52.180Z,100.00
2023-03-04T17:12:19.720Z,100.00
2023-03-04T17:17:27.621Z,100.00
2023-03-04T17:19:54.977Z,100.00
2023-03-04T17:22:23.065Z,100.00
2023-03-04T17:24:51.000Z,100.00
2023-03-04T17:27:18.413Z,100.00
2023-03-04T17:29:46.247Z,100.00
2023-03-04T17:32:13.478Z,100.00
2023-03-04T17:34:42.050Z,100.00
2023-03-04T17:37:11.267Z,100.00
2023-03-04T17:39:39.065Z,100.00
2023-03-04T17:42:06.627Z,100.00
2023-03-04T17:44:34.146Z,100.00
2023-03-04T17:47:01.583Z,100.00
2023-03-04T17:49:28.607Z,100.00
2023-03-04T17:51:56.064Z,100.00
2023-03-04T17:54:27.039Z,100.00
2023-03-04T17:56:55.524Z,100.00
2023-03-04T17:59:22.819Z,100.00
2023-03-04T18:01:52.865Z,100.00
2023-03-04T18:04:21.443Z,100.00
2023-03-04T18:06:51.174Z,100.00
2023-03-04T18:09:18.560Z,100.00
2023-03-04T18:11:45.592Z,100.00
2023-03-04T18:14:13.038Z,100.00
2023-03-04T18:16:44.080Z,100.00
2023-03-04T18:19:11.342Z,100.00
2023-03-04T18:21:38.479Z,100.00
2023-03-04T18:24:05.567Z,100.00
2023-03-04T18:26:32.632Z,100.00
2023-03-04T18:28:59.658Z,100.00
2023-03-04T18:34:09.071Z,100.00
2023-03-04T18:36:36.130Z,100.00
2023-03-04T18:39:05.621Z,100.00
2023-03-04T18:41:32.765Z,100.00
2023-03-04T18:44:01.654Z,100.00
2023-03-04T18:46:31.043Z,100.00
2023-03-04T18:49:06.271Z,100.00
2023-03-04T18:51:36.345Z,100.00
2023-03-04T18:54:03.881Z,100.00
2023-03-04T18:56:51.138Z,99.71
2023-03-04T18:59:21.229Z,97.95
2023-03-04T19:01:49.739Z,98.16
2023-03-04T19:04:26.074Z,99.40
2023-03-04T19:06:53.212Z,96.82
2023-03-04T19:09:20.353Z,97.74
2023-03-04T19:11:47.358Z,96.31
2023-03-04T19:14:14.392Z,97.88
2023-03-04T19:16:41.762Z,97.42
2023-03-04T19:19:11.830Z,98.58
2023-03-04T19:21:41.406Z,97.61
2023-03-04T19:24:08.399Z,97.76
2023-03-04T19:26:35.574Z,98.02
2023-03-04T19:29:02.743Z,96.99
2023-03-04T19:31:29.824Z,98.91
2023-03-04T19:33:56.734Z,98.82
2023-03-04T19:36:25.502Z,98.89
2023-03-04T19:38:52.771Z,97.95
2023-03-04T19:41:22.652Z,97.12
2023-03-04T19:43:50.535Z,95.57
2023-03-04T19:46:17.620Z,96.53
2023-03-04T19:48:45.329Z,94.59
2023-03-04T19:51:16.795Z,93.46
2023-03-04T19:53:43.906Z,94.80
2023-03-04T19:56:10.910Z,94.07
2023-03-04T19:58:38.041Z,94.66
2023-03-04T20:01:06.071Z,93.54
2023-03-04T20:03:33.265Z,92.57
2023-03-04T20:06:04.734Z,93.70
2023-03-04T20:08:32.310Z,92.96
2023-03-04T20:10:59.270Z,93.78
2023-03-04T20:13:26.986Z,92.76
2023-03-04T20:15:54.171Z,91.38
2023-03-04T20:18:21.174Z,91.54
2023-03-04T20:20:49.034Z,92.60
2023-03-04T20:23:20.342Z,91.83
2023-03-04T20:25:47.734Z,91.39
2023-03-04T20:28:14.722Z,91.68
2023-03-04T20:30:41.806Z,91.84
2023-03-04T20:33:09.860Z,93.13
2023-03-04T20:35:39.315Z,92.40
2023-03-04T20:38:09.731Z,92.15
2023-03-04T20:40:37.480Z,91.59
2023-03-04T20:43:05.804Z,91.81
2023-03-04T20:45:33.388Z,91.37
2023-03-04T20:48:00.405Z,92.06
2023-03-04T20:50:27.559Z,91.77
2023-03-04T20:52:54.730Z,91.85
2023-03-04T20:55:21.991Z,91.85
2023-03-04T20:57:49.950Z,91.65
2023-03-04T21:00:17.110Z,91.39
2023-03-04T21:02:44.053Z,92.24
2023-03-04T21:05:11.308Z,90.40
2023-03-04T21:07:38.276Z,89.36
2023-03-04T21:10:05.474Z,89.06
2023-03-04T21:12:32.574Z,90.21
2023-03-04T21:15:00.158Z,89.94
2023-03-04T21:17:27.174Z,89.89
2023-03-04T21:19:54.218Z,89.66
2023-03-04T21:22:21.418Z,89.48
2023-03-04T21:24:48.581Z,89.89
2023-03-04T21:27:17.067Z,90.16
2023-03-04T21:29:44.623Z,89.19
2023-03-04T21:32:24.920Z,89.68
2023-03-04T21:34:53.052Z,89.13
2023-03-04T21:37:24.107Z,88.64
2023-03-04T21:39:51.422Z,90.77
2023-03-04T21:42:18.498Z,90.80
2023-03-04T21:44:49.690Z,91.21
2023-03-04T21:47:17.261Z,90.86
2023-03-04T21:49:44.287Z,91.49
2023-03-04T21:52:11.353Z,90.82
2023-03-04T21:54:38.324Z,91.88
2023-03-04T21:57:05.274Z,92.43
2023-03-04T21:59:32.132Z,91.62
2023-03-04T22:01:59.342Z,91.72
2023-03-04T22:04:26.581Z,92.08
2023-03-04T22:06:53.435Z,92.93
2023-03-04T22:09:20.373Z,92.09
2023-03-04T22:11:47.248Z,92.56
2023-03-04T22:14:14.168Z,92.05
2023-03-04T22:16:56.949Z,93.36
2023-03-04T22:19:24.795Z,93.34
2023-03-04T22:21:51.792Z,92.60
2023-03-04T22:24:18.802Z,93.25
2023-03-04T22:26:46.072Z,92.96
2023-03-04T22:29:13.015Z,93.34
2023-03-04T22:31:39.909Z,93.44
2023-03-04T22:34:11.416Z,93.14
2023-03-04T22:36:40.267Z,94.16
2023-03-04T22:39:12.983Z,93.15
2023-03-04T22:41:40.062Z,93.62
2023-03-04T22:44:07.066Z,93.47
2023-03-04T22:46:35.077Z,93.78
2023-03-04T22:49:08.871Z,93.45
2023-03-04T22:51:35.890Z,94.17
2023-03-04T22:54:02.955Z,93.70
2023-03-04T22:56:29.904Z,93.80
2023-03-04T22:58:56.936Z,94.24
2023-03-04T23:01:23.909Z,93.28
2023-03-04T23:03:51.070Z,93.08
2023-03-04T23:06:20.123Z,93.03
2023-03-04T23:08:47.662Z,93.34
2023-03-04T23:11:16.933Z,93.21
2023-03-04T23:13:43.980Z,92.97
2023-03-04T23:16:11.611Z,92.55
2023-03-04T23:18:39.300Z,93.51
2023-03-04T23:21:16.900Z,92.69
2023-03-04T23:23:44.029Z,93.32
2023-03-04T23:26:32.498Z,93.76
2023-03-04T23:29:01.583Z,94.51
2023-03-04T23:31:29.481Z,93.48
2023-03-04T23:33:59.246Z,93.86
2023-03-04T23:36:27.739Z,93.76
2023-03-04T23:38:54.711Z,93.73
2023-03-04T23:41:23.090Z,92.55
2023-03-04T23:43:51.825Z,92.81
2023-03-04T23:46:19.648Z,93.07
2023-03-04T23:48:47.104Z,92.18
2023-03-04T23:51:15.227Z,92.03
2023-03-04T23:53:42.365Z,92.00
2023-03-04T23:56:13.334Z,91.70
2023-03-04T23:58:41.403Z,91.89
